createdAt,value
2019-01-24T00:03:02.571Z,55.17
2019-01-24T00:06:30.841Z,46.87
2019-01-24T00:18:02.214Z,51.60
2019-01-24T00:27:14.106Z,43.20
2019-01-24T00:29:57.095Z,48.03
2019-01-24T00:33:16.775Z,43.40
2019-01-24T00:40:11.433Z,45.73
2019-01-24T00:46:41.005Z,41.43
2019-01-24T00:50:01.457Z,46.37
2019-01-24T00:53:07.821Z,43.57
2019-01-24T00:59:12.802Z,46.80
2019-01-24T01:06:11.770Z,41.60
2019-01-24T01:09:15.551Z,56.87
2019-01-24T01:12:39.247Z,47.73
2019-01-24T01:17:30.559Z,61.40
2019-01-24T01:25:26.280Z,46.10
2019-01-24T01:28:08.712Z,52.47
2019-01-24T01:31:57.003Z,49.07
2019-01-24T01:38:17.668Z,50.67
2019-01-24T01:40:27.422Z,48.60
2019-01-24T01:43:12.322Z,53.47
2019-01-24T01:46:28.216Z,62.23
2019-01-24T01:49:26.459Z,45.70
2019-01-24T01:52:47.974Z,46.70
2019-01-24T02:02:54.773Z,43.10
2019-01-24T02:08:55.412Z,37.47
2019-01-24T02:12:27.894Z,36.70
2019-01-24T02:18:11.298Z,50.83
2019-01-24T02:24:55.285Z,43.73
2019-01-24T02:30:08.878Z,44.30
2019-01-24T02:33:52.832Z,44.17
2019-01-24T02:37:34.624Z,39.77
2019-01-24T02:41:16.226Z,39.00
2019-01-24T02:47:21.974Z,40.50
2019-01-24T02:49:54.831Z,45.30
2019-01-24T02:55:03.340Z,46.47
2019-01-24T02:55:56.067Z,38.93
2019-01-24T02:59:01.989Z,50.60
2019-01-24T03:05:08.968Z,41.57
2019-01-24T03:07:48.631Z,44.37
2019-01-24T03:10:48.159Z,33.73
2019-01-24T03:13:36.282Z,36.07
2019-01-24T03:16:21.041Z,44.97
2019-01-24T03:19:11.116Z,38.70
2019-01-24T03:21:49.424Z,37.37
2019-01-24T03:24:35.231Z,40.60
2019-01-24T03:34:10.630Z,38.13
2019-01-24T03:37:29.372Z,36.60
2019-01-24T03:40:56.594Z,31.40
2019-01-24T03:47:02.920Z,37.83
2019-01-24T03:50:14.815Z,42.30
2019-01-24T03:53:40.612Z,33.40
2019-01-24T04:00:24.546Z,42.87
2019-01-24T04:03:12.747Z,39.40
2019-01-24T04:10:02.396Z,35.67
2019-01-24T04:12:11.907Z,32.83
2019-01-24T04:15:13.657Z,43.73
2019-01-24T04:18:19.272Z,36.50
2019-01-24T04:21:12.205Z,45.87
2019-01-24T04:24:21.634Z,39.47
2019-01-24T04:27:18.371Z,39.47
2019-01-24T04:31:10.512Z,40.43
2019-01-24T04:33:21.417Z,34.23
2019-01-24T04:37:50.596Z,34.03
2019-01-24T04:38:55.259Z,45.57
2019-01-24T04:41:53.243Z,33.33
2019-01-24T04:44:28.811Z,43.10
2019-01-24T04:47:20.613Z,38.80
2019-01-24T04:50:16.411Z,38.33
2019-01-24T04:53:01.391Z,42.87
2019-01-24T04:55:37.852Z,42.10
2019-01-24T04:58:08.698Z,32.10
2019-01-24T05:01:02.509Z,39.30
2019-01-24T05:07:46.336Z,38.87
2019-01-24T05:10:13.798Z,44.13
2019-01-24T05:13:14.067Z,41.83
2019-01-24T05:19:27.020Z,35.73
2019-01-24T05:22:19.276Z,38.70
2019-01-24T05:25:06.508Z,32.57
2019-01-24T05:32:05.414Z,35.67
2019-01-24T05:35:10.260Z,31.23
2019-01-24T05:48:21.952Z,45.50
2019-01-24T05:54:46.817Z,46.30
2019-01-24T05:57:53.943Z,39.30
2019-01-24T06:02:06.991Z,46.10
2019-01-24T06:04:18.958Z,39.37
2019-01-24T06:08:05.025Z,43.70
2019-01-24T06:10:29.393Z,35.57
2019-01-24T06:13:32.136Z,42.13
2019-01-24T06:19:45.479Z,38.40
2019-01-24T06:22:51.387Z,37.43
2019-01-24T06:25:46.472Z,43.70
2019-01-24T06:28:41.386Z,45.63
2019-01-24T06:31:32.988Z,41.13
2019-01-24T06:34:19.418Z,37.30
2019-01-24T06:37:22.290Z,40.90
2019-01-24T06:41:33.605Z,34.07
2019-01-24T06:44:00.283Z,46.97
2019-01-24T06:46:35.529Z,48.63
2019-01-24T06:49:43.104Z,46.43
2019-01-24T06:52:35.858Z,39.23
2019-01-24T06:55:41.079Z,41.57
2019-01-24T06:58:54.540Z,46.83
2019-01-24T07:01:52.676Z,43.07
2019-01-24T07:04:25.641Z,40.70
2019-01-24T07:07:27.114Z,49.17
2019-01-24T07:10:14.801Z,54.03
2019-01-24T07:13:01.416Z,50.07
2019-01-24T07:16:18.739Z,46.10
2019-01-24T07:18:51.335Z,49.53
2019-01-24T07:21:59.413Z,45.10
2019-01-24T07:24:56.477Z,45.07
2019-01-24T07:27:53.210Z,49.37
2019-01-24T07:31:06.430Z,45.07
2019-01-24T07:33:47.419Z,44.70
2019-01-24T07:36:48.516Z,40.33
2019-01-24T07:39:48.211Z,54.33
2019-01-24T07:42:32.964Z,45.43
2019-01-24T07:45:20.615Z,44.13
2019-01-24T07:47:57.593Z,47.77
2019-01-24T07:50:47.995Z,48.30
2019-01-24T07:53:46.092Z,53.50
2019-01-24T07:57:02.426Z,47.97
2019-01-24T08:03:01.953Z,53.20
2019-01-24T08:10:07.641Z,47.80
2019-01-24T08:12:17.580Z,46.17
2019-01-24T08:15:25.854Z,56.90
2019-01-24T08:18:36.702Z,49.63
2019-01-24T08:21:09.110Z,52.93
2019-01-24T08:23:52.445Z,47.73
2019-01-24T08:26:45.925Z,53.93
2019-01-24T08:29:32.956Z,48.80
2019-01-24T08:32:21.008Z,59.90
2019-01-24T08:41:58.336Z,55.67
2019-01-24T08:51:32.902Z,70.50
2019-01-24T08:54:25.783Z,54.30
2019-01-24T08:57:25.035Z,47.90
2019-01-24T09:00:16.422Z,47.30
2019-01-24T09:03:14.114Z,44.20
2019-01-24T09:06:34.614Z,39.10
2019-01-24T09:09:42.312Z,48.47
2019-01-24T09:12:59.931Z,36.27
2019-01-24T09:17:56.152Z,44.93
2019-01-24T09:20:28.856Z,44.67
2019-01-24T09:23:00.549Z,47.97
2019-01-24T09:25:34.023Z,44.33
2019-01-24T09:28:23.957Z,50.17
2019-01-24T09:30:55.673Z,47.70
2019-01-24T09:33:29.543Z,46.57
2019-01-24T09:36:00.042Z,50.87
2019-01-24T09:38:31.306Z,48.27
2019-01-24T09:41:03.965Z,49.23
2019-01-24T09:43:45.806Z,50.30
2019-01-24T09:46:25.590Z,56.03
2019-01-24T09:49:12.985Z,54.70
2019-01-24T09:52:06.124Z,56.97
2019-01-24T09:54:40.718Z,47.60
2019-01-24T09:57:48.667Z,55.53
2019-01-24T10:00:39.711Z,58.93
2019-01-24T10:03:22.319Z,47.70
2019-01-24T10:06:14.213Z,58.07
2019-01-24T10:12:11.973Z,46.03
2019-01-24T10:18:21.593Z,43.20
2019-01-24T10:24:57.258Z,45.77
2019-01-24T10:27:27.494Z,39.80
2019-01-24T10:33:39.863Z,42.30
2019-01-24T10:36:49.261Z,44.93
2019-01-24T10:47:19.692Z,42.17
2019-01-24T11:04:44.895Z,49.50
2019-01-24T11:20:44.025Z,69.13
2019-01-24T11:27:54.781Z,62.57
2019-01-24T11:39:41.242Z,56.83
2019-01-24T11:41:12.042Z,63.60
2019-01-24T11:55:28.245Z,63.77
2019-01-24T12:04:25.266Z,64.23
2019-01-24T12:17:58.651Z,69.23
2019-01-24T12:32:33.559Z,59.10
2019-01-24T12:39:48.151Z,61.23
2019-01-24T12:54:02.248Z,64.17
2019-01-24T12:59:59.929Z,72.77
2019-01-24T13:09:44.491Z,77.20
2019-01-24T13:13:08.066Z,69.37
2019-01-24T13:19:45.109Z,69.67
2019-01-24T13:29:07.946Z,75.40
2019-01-24T13:33:36.074Z,74.80
2019-01-24T13:39:55.422Z,64.20
2019-01-24T13:46:35.774Z,64.03
2019-01-24T13:50:31.129Z,69.23
2019-01-24T14:13:47.723Z,67.33
2019-01-24T14:17:55.230Z,67.60
2019-01-24T14:24:09.666Z,69.97
2019-01-24T14:27:17.490Z,72.13
2019-01-24T14:36:30.869Z,63.77
2019-01-24T14:52:17.785Z,72.77
2019-01-24T14:53:38.062Z,75.33
2019-01-24T14:57:07.167Z,79.53
2019-01-24T15:00:20.246Z,78.27
2019-01-24T15:08:54.146Z,76.03
2019-01-24T15:10:58.252Z,72.73
2019-01-24T15:25:04.969Z,73.20
2019-01-24T15:28:11.137Z,74.30
2019-01-24T15:31:30.966Z,71.50
2019-01-24T15:37:57.324Z,81.23
2019-01-24T15:47:12.438Z,70.87
2019-01-24T15:49:36.751Z,78.77
2019-01-24T15:52:41.718Z,77.37
2019-01-24T15:55:28.954Z,71.33
2019-01-24T15:58:16.104Z,81.63
2019-01-24T16:03:56.047Z,72.33
2019-01-24T16:06:58.237Z,74.23
2019-01-24T16:10:04.692Z,69.43
2019-01-24T16:16:09.056Z,70.60
2019-01-24T16:19:07.176Z,80.60
2019-01-24T16:21:56.959Z,79.03
2019-01-24T16:25:14.094Z,70.80
2019-01-24T16:28:24.487Z,73.57
2019-01-24T16:30:59.553Z,74.53
2019-01-24T16:33:35.547Z,74.33
2019-01-24T16:36:25.326Z,67.73
2019-01-24T16:39:14.473Z,75.77
2019-01-24T16:44:50.214Z,73.73
2019-01-24T16:47:34.950Z,84.23
2019-01-24T16:51:00.636Z,75.77
2019-01-24T16:53:59.179Z,75.00
2019-01-24T16:56:34.097Z,74.90
2019-01-24T16:59:22.943Z,77.80
2019-01-24T17:01:52.935Z,72.77
2019-01-24T17:04:25.814Z,70.10
2019-01-24T17:06:56.616Z,71.47
2019-01-24T17:09:36.493Z,85.23
2019-01-24T17:12:31.226Z,73.83
2019-01-24T17:15:19.843Z,69.03
2019-01-24T17:17:58.340Z,66.17
2019-01-24T17:20:47.747Z,83.30
2019-01-24T17:23:14.504Z,82.23
2019-01-24T17:25:52.789Z,79.10
2019-01-24T17:28:28.408Z,81.37
2019-01-24T17:31:03.728Z,72.63
2019-01-24T17:33:36.932Z,60.17
2019-01-24T17:36:09.316Z,71.23
2019-01-24T17:38:48.639Z,70.40
2019-01-24T17:41:26.983Z,68.87
2019-01-24T17:43:59.412Z,71.77
2019-01-24T17:46:31.118Z,72.83
2019-01-24T17:49:25.450Z,64.87
2019-01-24T17:52:01.759Z,72.43
2019-01-24T17:54:43.038Z,68.43
2019-01-24T17:57:30.866Z,74.20
2019-01-24T18:00:43.746Z,72.37
2019-01-24T18:03:29.864Z,62.70
2019-01-24T18:06:18.034Z,76.90
2019-01-24T18:08:56.234Z,86.47
2019-01-24T18:14:35.969Z,77.47
2019-01-24T18:17:24.376Z,74.40
2019-01-24T18:21:11.762Z,82.67
2019-01-24T18:23:10.824Z,77.07
2019-01-24T18:25:48.861Z,89.53
2019-01-24T18:28:24.005Z,96.00
2019-01-24T18:30:59.398Z,113.60
2019-01-24T18:33:37.181Z,109.83
2019-01-24T18:36:11.369Z,124.43
2019-01-24T18:38:58.130Z,124.73
2019-01-24T18:41:54.420Z,125.97
2019-01-24T18:44:31.629Z,134.00
2019-01-24T18:47:05.491Z,113.80
2019-01-24T18:49:46.679Z,126.27
2019-01-24T18:52:41.706Z,107.40
2019-01-24T18:55:18.302Z,106.67
2019-01-24T19:01:30.961Z,116.37
2019-01-24T19:04:15.043Z,97.20
2019-01-24T19:06:50.387Z,103.80
2019-01-24T19:09:28.152Z,109.57
2019-01-24T19:12:00.332Z,103.70
2019-01-24T19:14:34.527Z,103.00
2019-01-24T19:17:08.249Z,102.37
2019-01-24T19:19:53.502Z,108.23
2019-01-24T19:22:23.583Z,95.57
2019-01-24T19:25:00.450Z,96.30
2019-01-24T19:27:31.487Z,93.10
2019-01-24T19:30:02.617Z,106.10
2019-01-24T19:32:34.167Z,114.60
2019-01-24T19:35:07.923Z,107.47
2019-01-24T19:37:47.004Z,130.07
2019-01-24T19:40:22.961Z,110.40
2019-01-24T19:43:02.922Z,95.90
2019-01-24T19:45:41.639Z,109.47
2019-01-24T19:48:15.862Z,111.60
2019-01-24T19:50:57.039Z,103.23
2019-01-24T19:53:37.292Z,101.50
2019-01-24T19:56:20.190Z,108.17
2019-01-24T19:58:49.470Z,100.43
2019-01-24T20:01:25.652Z,104.47
2019-01-24T20:04:00.099Z,111.37
2019-01-24T20:06:33.070Z,106.87
2019-01-24T20:09:08.034Z,120.37
2019-01-24T20:11:54.295Z,103.47
2019-01-24T20:14:31.388Z,109.90
2019-01-24T20:17:24.262Z,105.70
2019-01-24T20:20:06.094Z,110.10
2019-01-24T20:22:37.742Z,111.60
2019-01-24T20:25:16.528Z,94.63
2019-01-24T20:27:48.737Z,89.67
2019-01-24T20:30:25.330Z,97.83
2019-01-24T20:33:02.318Z,89.50
2019-01-24T20:35:56.248Z,104.00
2019-01-24T20:38:30.911Z,96.00
2019-01-24T20:41:24.225Z,94.00
2019-01-24T20:43:59.527Z,88.03
2019-01-24T20:46:40.555Z,99.13
2019-01-24T20:49:35.219Z,106.63
2019-01-24T20:52:13.252Z,94.50
2019-01-24T20:54:45.492Z,90.13
2019-01-24T20:57:16.744Z,102.23
2019-01-24T21:00:13.359Z,106.67
2019-01-24T21:02:58.254Z,106.47
2019-01-24T21:05:36.893Z,104.73
2019-01-24T21:08:08.831Z,94.53
2019-01-24T21:10:45.503Z,111.87
2019-01-24T21:13:27.159Z,97.87
2019-01-24T21:16:04.755Z,106.03
2019-01-24T21:18:46.045Z,112.67
2019-01-24T21:21:39.162Z,100.97
2019-01-24T21:24:12.828Z,92.23
2019-01-24T21:26:49.709Z,95.93
2019-01-24T21:29:36.853Z,89.03
2019-01-24T21:32:59.714Z,96.87
2019-01-24T21:39:22.164Z,86.30
2019-01-24T21:41:56.252Z,97.03
2019-01-24T21:56:53.315Z,100.67
2019-01-24T22:16:55.234Z,80.27
2019-01-24T22:20:58.046Z,79.53
2019-01-24T22:43:34.469Z,70.97
2019-01-24T22:47:13.852Z,72.83
2019-01-24T22:50:14.123Z,63.77
2019-01-24T22:52:51.506Z,77.10
2019-01-24T22:55:54.856Z,83.23
2019-01-24T22:58:48.342Z,88.27
2019-01-24T23:02:46.309Z,93.23
2019-01-24T23:05:50.585Z,97.10
2019-01-24T23:08:19.003Z,84.73
2019-01-24T23:11:11.375Z,79.40
2019-01-24T23:14:27.794Z,93.30
2019-01-24T23:17:14.225Z,89.57
2019-01-24T23:20:12.586Z,100.80
2019-01-24T23:23:20.566Z,117.07
2019-01-24T23:32:48.765Z,136.20
2019-01-24T23:35:34.154Z,123.80
2019-01-24T23:38:54.506Z,121.87
2019-01-24T23:41:59.678Z,175.07
2019-01-24T23:45:24.316Z,147.33
2019-01-24T23:48:25.319Z,159.07
2019-01-24T23:51:16.512Z,128.27
2019-01-24T23:54:21.137Z,119.17
2019-01-24T23:57:12.635Z,137.43
